Archival Weather

Chicago O'Hare International

Chicago, Illinois (KORD)

Report from: Sunday, March 6, 2022 3:51 PM CST
Current time: Saturday, February 4, 2023 10:40 PM CST

Current weather
Weather history
Weather forecast

Temperature4.4°C (39.9°F)
Wind chill0.1°C (32.1°F)
Dew point-2.2°C (28.0°F)
Winds 12 kts (6.2 m/s, 13.8 mph) West (280°)
Wind gusts 18 kts (9.3 m/s, 20.7 mph)
Visibility10 mi. (16.1 km)
Clouds Scattered clouds 2,600 ft. (792 m)
Ceiling: Broken clouds 20,000 ft. (6,096 m)
Altimeter30.03 in.Hg (1017 mB)
Relative humidity62 %
Density altitude-1,327 ft. (-404 m)
Sea-level pressure101.7 kPa (1017 mB, 30.04 in.Hg)
Remarks System requires maintenance
Automated weather observing station with precipitation discriminator
Flight conditions Visual Meteorological Conditions
Raw dataKORD 062151Z 28012G18KT 10SM SCT026 BKN200 04/M02 A3003 RMK AO2 SLP172 T00441022 $
An unhandled exception has occurred. See browser dev tools for details. Reload 🗙